createdAt,value
2018-05-17T00:02:10.132Z,58.30
2018-05-17T00:04:39.365Z,57.70
2018-05-17T00:07:08.019Z,57.70
2018-05-17T00:09:37.112Z,55.50
2018-05-17T00:12:06.381Z,56.70
2018-05-17T00:14:35.002Z,56.70
2018-05-17T00:17:03.574Z,55.00
2018-05-17T00:19:32.170Z,55.40
2018-05-17T00:22:01.434Z,58.10
2018-05-17T00:24:29.850Z,57.90
2018-05-17T00:26:58.191Z,55.50
2018-05-17T00:29:26.865Z,56.90
2018-05-17T00:31:55.305Z,55.90
2018-05-17T00:34:23.978Z,57.10
2018-05-17T00:36:53.148Z,55.70
2018-05-17T00:39:21.483Z,55.70
2018-05-17T00:41:49.912Z,56.60
2018-05-17T00:44:19.124Z,56.30
2018-05-17T00:46:48.338Z,56.20
2018-05-17T00:49:16.936Z,56.20
2018-05-17T00:51:45.506Z,56.90
2018-05-17T00:54:14.037Z,57.60
2018-05-17T00:56:42.445Z,56.90
2018-05-17T00:59:11.599Z,54.60
2018-05-17T01:01:40.230Z,54.60
2018-05-17T01:04:09.568Z,55.30
2018-05-17T01:06:37.954Z,55.20
2018-05-17T01:09:06.255Z,55.60
2018-05-17T01:11:34.534Z,57.00
2018-05-17T01:14:02.954Z,55.90
2018-05-17T01:16:31.255Z,56.70
2018-05-17T01:19:00.068Z,56.10
2018-05-17T01:21:28.476Z,57.80
2018-05-17T01:23:57.728Z,58.60
2018-05-17T01:26:26.064Z,58.60
2018-05-17T01:28:55.342Z,58.90
2018-05-17T01:31:24.489Z,57.50
2018-05-17T01:33:52.830Z,57.50
2018-05-17T01:36:22.755Z,58.40
2018-05-17T01:38:51.951Z,58.20
2018-05-17T01:41:20.360Z,58.20
2018-05-17T01:43:48.884Z,58.70
2018-05-17T01:46:17.665Z,58.30
2018-05-17T01:48:46.496Z,55.60
2018-05-17T01:51:15.795Z,56.40
2018-05-17T01:53:45.159Z,56.30
2018-05-17T01:56:13.587Z,56.20
2018-05-17T01:58:42.021Z,55.30
2018-05-17T02:01:11.287Z,58.10
2018-05-17T02:03:39.580Z,58.20
2018-05-17T02:06:07.922Z,56.40
2018-05-17T02:08:36.300Z,57.60
2018-05-17T02:11:04.759Z,58.80
2018-05-17T02:13:33.936Z,58.30
2018-05-17T02:16:02.475Z,58.10
2018-05-17T02:18:30.985Z,56.90
2018-05-17T02:20:59.620Z,57.20
2018-05-17T02:23:28.137Z,59.50
2018-05-17T02:25:56.535Z,57.70
2018-05-17T02:28:24.860Z,58.90
2018-05-17T02:30:53.274Z,57.00
2018-05-17T02:33:22.077Z,57.30
2018-05-17T02:35:50.378Z,57.30
2018-05-17T02:38:18.721Z,58.90
2018-05-17T02:40:47.084Z,59.60
2018-05-17T02:43:15.700Z,58.30
2018-05-17T02:45:44.209Z,58.20
2018-05-17T02:48:13.580Z,57.80
2018-05-17T02:50:41.881Z,57.60
2018-05-17T02:53:10.215Z,57.20
2018-05-17T02:55:38.586Z,58.90
2018-05-17T02:58:06.951Z,58.50
2018-05-17T03:00:35.496Z,59.50
2018-05-17T03:03:04.930Z,59.80
2018-05-17T03:05:33.325Z,59.70
2018-05-17T03:08:01.784Z,57.50
2018-05-17T03:10:30.877Z,57.10
2018-05-17T03:13:00.000Z,57.60
2018-05-17T03:15:28.344Z,57.00
2018-05-17T03:17:56.953Z,58.30
2018-05-17T03:20:25.497Z,58.20
2018-05-17T03:22:54.890Z,58.40
2018-05-17T03:25:24.222Z,56.60
2018-05-17T03:27:52.553Z,56.50
2018-05-17T03:30:20.865Z,55.80
2018-05-17T03:32:50.000Z,58.80
2018-05-17T03:35:18.361Z,58.10
2018-05-17T03:37:46.788Z,56.30
2018-05-17T03:40:15.277Z,56.40
2018-05-17T03:42:43.642Z,56.90
2018-05-17T03:45:12.075Z,56.70
2018-05-17T03:47:40.445Z,54.90
2018-05-17T03:50:09.040Z,55.80
2018-05-17T03:52:37.581Z,54.80
2018-05-17T03:55:06.058Z,56.20
2018-05-17T03:57:34.391Z,55.70
2018-05-17T04:00:02.760Z,57.00
2018-05-17T04:02:49.093Z,54.50
2018-05-17T04:05:35.297Z,56.00
2018-05-17T04:08:03.718Z,55.20
2018-05-17T04:10:32.915Z,58.20
2018-05-17T04:13:01.379Z,58.20
2018-05-17T04:15:29.830Z,55.90
2018-05-17T04:17:58.221Z,57.00
2018-05-17T04:20:26.625Z,57.40
2018-05-17T04:22:55.707Z,56.30
2018-05-17T04:25:24.050Z,56.30
2018-05-17T04:27:52.748Z,57.90
2018-05-17T04:30:21.262Z,56.90
2018-05-17T04:32:50.487Z,56.20
2018-05-17T04:35:18.901Z,56.30
2018-05-17T04:37:47.291Z,58.30
2018-05-17T04:40:15.671Z,57.60
2018-05-17T04:42:44.226Z,54.50
2018-05-17T04:45:12.733Z,56.00
2018-05-17T04:47:41.182Z,57.00
2018-05-17T04:50:09.826Z,56.20
2018-05-17T04:52:38.621Z,55.80
2018-05-17T04:55:07.788Z,56.40
2018-05-17T04:57:36.155Z,56.40
2018-05-17T05:00:04.528Z,58.40
2018-05-17T05:02:33.042Z,57.10
2018-05-17T05:05:01.651Z,56.20
2018-05-17T05:07:30.941Z,54.00
2018-05-17T05:10:00.245Z,55.20
2018-05-17T05:12:28.598Z,55.20
2018-05-17T05:14:56.926Z,55.20
2018-05-17T05:17:25.481Z,55.70
2018-05-17T05:19:54.554Z,56.70
2018-05-17T05:22:23.213Z,56.80
2018-05-17T05:24:51.674Z,54.60
2018-05-17T05:27:20.123Z,54.70
2018-05-17T05:29:49.098Z,55.00
2018-05-17T05:32:17.418Z,53.60
2018-05-17T05:34:45.811Z,53.10
2018-05-17T05:37:14.181Z,53.20
2018-05-17T05:39:42.622Z,53.50
2018-05-17T05:42:11.778Z,54.70
2018-05-17T05:44:40.242Z,54.50
2018-05-17T05:47:08.612Z,54.70
2018-05-17T05:49:36.983Z,53.00
2018-05-17T05:52:05.348Z,53.70
2018-05-17T05:54:34.655Z,51.80
2018-05-17T05:57:03.019Z,51.80
2018-05-17T05:59:33.773Z,54.50
2018-05-17T06:02:02.192Z,54.50
2018-05-17T06:04:30.616Z,52.60
2018-05-17T06:06:58.969Z,52.00
2018-05-17T06:09:27.417Z,52.10
2018-05-17T06:11:55.932Z,51.80
2018-05-17T06:14:24.226Z,52.60
2018-05-17T06:16:54.022Z,52.10
2018-05-17T06:19:22.518Z,52.10
2018-05-17T06:21:50.838Z,51.90
2018-05-17T06:24:19.313Z,53.80
2018-05-17T06:26:47.823Z,50.60
2018-05-17T06:29:16.206Z,50.60
2018-05-17T06:31:44.923Z,50.90
2018-05-17T06:34:13.412Z,49.90
2018-05-17T06:36:42.511Z,50.40
2018-05-17T06:39:10.863Z,50.40
2018-05-17T06:41:39.208Z,51.10
2018-05-17T06:44:07.778Z,50.70
2018-05-17T06:46:37.261Z,49.30
2018-05-17T06:49:06.387Z,48.50
2018-05-17T06:51:34.763Z,48.50
2018-05-17T06:54:03.116Z,48.00
2018-05-17T06:56:32.303Z,50.20
2018-05-17T06:59:00.951Z,50.10
2018-05-17T07:01:30.738Z,50.00
2018-05-17T07:03:59.091Z,50.00
2018-05-17T07:06:27.472Z,48.40
2018-05-17T07:08:55.777Z,49.50
2018-05-17T07:11:24.571Z,48.80
2018-05-17T07:13:52.932Z,47.00
2018-05-17T07:16:21.296Z,47.00
2018-05-17T07:18:49.708Z,47.40
2018-05-17T07:21:18.152Z,47.90
2018-05-17T07:23:46.618Z,45.30
2018-05-17T07:26:15.116Z,46.60
2018-05-17T07:28:43.416Z,46.00
2018-05-17T07:31:12.098Z,45.40
2018-05-17T07:33:40.622Z,45.80
2018-05-17T07:36:09.881Z,45.30
2018-05-17T07:38:38.448Z,44.60
2018-05-17T07:41:06.777Z,42.90
2018-05-17T07:43:35.206Z,43.40
2018-05-17T07:46:03.766Z,44.30
2018-05-17T07:48:32.276Z,44.90
2018-05-17T07:51:00.581Z,47.10
2018-05-17T07:53:29.024Z,45.90
2018-05-17T07:55:57.503Z,46.10
2018-05-17T07:58:26.274Z,46.90
2018-05-17T08:00:55.313Z,47.80
2018-05-17T08:03:23.715Z,48.00
2018-05-17T08:05:52.094Z,48.10
2018-05-17T08:08:20.427Z,48.30
2018-05-17T08:10:48.902Z,48.00
2018-05-17T08:13:17.401Z,47.50
2018-05-17T08:15:45.767Z,47.60
2018-05-17T08:18:14.082Z,46.80
2018-05-17T08:20:42.467Z,45.80
2018-05-17T08:23:10.788Z,47.40
2018-05-17T08:25:39.171Z,46.10
2018-05-17T08:28:07.632Z,45.40
2018-05-17T08:30:36.824Z,46.30
2018-05-17T08:33:05.976Z,46.40
2018-05-17T08:35:34.501Z,46.30
2018-05-17T08:38:03.909Z,44.60
2018-05-17T08:40:33.011Z,44.20
2018-05-17T08:43:02.164Z,42.70
2018-05-17T08:45:30.550Z,42.70
2018-05-17T08:47:59.123Z,43.50
2018-05-17T08:50:27.564Z,44.50
2018-05-17T08:52:55.976Z,43.90
2018-05-17T08:55:24.509Z,44.40
2018-05-17T08:57:52.983Z,44.80
2018-05-17T09:00:22.999Z,43.20
2018-05-17T09:02:53.257Z,43.50
2018-05-17T09:05:21.566Z,43.50
2018-05-17T09:07:49.872Z,43.50
2018-05-17T09:10:18.360Z,42.70
2018-05-17T09:12:47.487Z,42.20
2018-05-17T09:15:15.972Z,42.20
2018-05-17T09:17:44.361Z,42.90
2018-05-17T09:20:12.950Z,43.60
2018-05-17T09:22:41.319Z,43.60
2018-05-17T09:25:09.768Z,45.80
2018-05-17T09:27:38.899Z,42.50
2018-05-17T09:30:07.434Z,42.40
2018-05-17T09:32:35.844Z,42.90
2018-05-17T09:35:04.212Z,43.20
2018-05-17T09:37:32.603Z,42.90
2018-05-17T09:40:00.920Z,42.70
2018-05-17T09:42:29.409Z,41.50
2018-05-17T09:44:58.663Z,42.10
2018-05-17T09:47:27.041Z,42.10
2018-05-17T09:49:55.393Z,41.80
2018-05-17T09:52:24.867Z,39.50
2018-05-17T09:54:53.311Z,39.50
2018-05-17T09:57:21.633Z,41.30
2018-05-17T09:59:50.008Z,41.80
2018-05-17T10:02:18.372Z,41.30
2018-05-17T10:04:46.703Z,41.90
2018-05-17T10:07:15.218Z,40.80
2018-05-17T10:09:43.677Z,39.80
2018-05-17T10:12:12.034Z,40.60
2018-05-17T10:14:41.157Z,41.10
2018-05-17T10:17:09.514Z,41.10
2018-05-17T10:19:37.981Z,40.50
2018-05-17T10:22:07.322Z,40.10
2018-05-17T10:24:35.882Z,40.10
2018-05-17T10:27:04.203Z,41.40
2018-05-17T10:29:32.650Z,39.00
2018-05-17T10:32:00.974Z,39.20
2018-05-17T10:34:29.263Z,40.70
2018-05-17T10:36:58.418Z,40.90
2018-05-17T10:39:26.801Z,41.00
2018-05-17T10:41:55.277Z,39.20
2018-05-17T10:44:23.933Z,40.10
2018-05-17T10:46:52.293Z,37.80
2018-05-17T10:49:21.398Z,38.70
2018-05-17T10:51:50.577Z,38.30
2018-05-17T10:54:19.108Z,38.30
2018-05-17T10:56:47.695Z,38.40
2018-05-17T10:59:16.156Z,38.00
2018-05-17T11:01:44.673Z,38.90
2018-05-17T11:04:14.229Z,36.80
2018-05-17T11:06:42.626Z,37.60
2018-05-17T11:09:11.173Z,36.80
2018-05-17T11:11:40.389Z,36.60
2018-05-17T11:14:09.657Z,36.10
2018-05-17T11:16:38.003Z,36.10
2018-05-17T11:19:06.383Z,35.40
2018-05-17T11:21:34.943Z,34.80
2018-05-17T11:24:03.293Z,36.50
2018-05-17T11:26:32.544Z,35.90
2018-05-17T11:29:01.992Z,35.30
2018-05-17T11:31:30.508Z,34.70
2018-05-17T11:33:58.882Z,35.90
2018-05-17T11:36:27.202Z,35.00
2018-05-17T11:38:55.644Z,34.40
2018-05-17T11:41:24.009Z,34.50
2018-05-17T11:43:53.245Z,33.70
2018-05-17T11:46:21.670Z,33.70
2018-05-17T11:48:50.827Z,33.40
2018-05-17T11:51:19.168Z,33.30
2018-05-17T11:53:48.348Z,32.80
2018-05-17T11:56:17.669Z,32.20
2018-05-17T11:58:46.004Z,32.30
2018-05-17T12:01:14.478Z,32.60
2018-05-17T12:03:43.154Z,33.60
2018-05-17T12:06:11.517Z,32.50
2018-05-17T12:08:40.862Z,32.10
2018-05-17T12:11:11.344Z,32.70
2018-05-17T12:13:39.803Z,32.80
2018-05-17T12:16:08.487Z,32.70
2018-05-17T12:18:36.870Z,32.30
2018-05-17T12:21:05.219Z,31.90
2018-05-17T12:23:34.387Z,33.20
2018-05-17T12:26:02.757Z,33.10
2018-05-17T12:28:31.234Z,33.50
2018-05-17T12:30:59.702Z,32.20
2018-05-17T12:33:28.073Z,31.10
2018-05-17T12:35:56.640Z,31.90
2018-05-17T12:38:25.214Z,31.20
2018-05-17T12:40:53.764Z,30.60
2018-05-17T12:43:22.162Z,30.80
2018-05-17T12:45:50.541Z,32.30
2018-05-17T12:48:18.884Z,31.80
2018-05-17T12:50:47.453Z,30.00
2018-05-17T12:53:15.882Z,29.80
2018-05-17T12:55:45.003Z,29.90
2018-05-17T12:58:13.409Z,29.80
2018-05-17T13:00:41.802Z,29.80
2018-05-17T13:03:10.173Z,30.30
2018-05-17T13:05:38.648Z,29.80
2018-05-17T13:08:07.120Z,29.40
2018-05-17T13:10:35.634Z,29.70
2018-05-17T13:13:04.134Z,30.00
2018-05-17T13:15:32.558Z,29.80
2018-05-17T13:18:01.089Z,29.40
2018-05-17T13:20:29.669Z,29.50
2018-05-17T13:22:58.321Z,29.00
2018-05-17T13:25:26.803Z,29.10
2018-05-17T13:27:55.262Z,29.50
2018-05-17T13:30:23.694Z,29.70
2018-05-17T13:32:51.990Z,30.10
2018-05-17T13:35:21.107Z,30.00
2018-05-17T13:37:51.433Z,28.80
2018-05-17T13:40:19.764Z,28.70
2018-05-17T13:42:48.255Z,29.00
2018-05-17T13:45:16.604Z,30.00
2018-05-17T13:47:45.241Z,29.20
2018-05-17T13:50:14.368Z,29.00
2018-05-17T13:52:42.782Z,29.00
2018-05-17T13:55:11.116Z,29.10
2018-05-17T13:57:39.684Z,29.40
2018-05-17T14:00:08.110Z,29.50
2018-05-17T14:02:36.691Z,29.40
2018-05-17T14:05:04.906Z,29.20
2018-05-17T14:07:34.620Z,29.70
2018-05-17T14:10:03.045Z,29.70
2018-05-17T14:12:31.559Z,30.00
2018-05-17T14:14:59.884Z,29.00
2018-05-17T14:17:28.349Z,29.10
2018-05-17T14:19:57.243Z,28.70
2018-05-17T14:22:25.611Z,28.90
2018-05-17T14:24:54.108Z,29.70
2018-05-17T14:27:22.605Z,28.90
2018-05-17T14:29:51.110Z,28.30
2018-05-17T14:32:19.606Z,28.50
2018-05-17T14:34:47.960Z,28.10
2018-05-17T14:37:16.434Z,28.60
2018-05-17T14:39:45.489Z,27.80
2018-05-17T14:42:14.611Z,28.10
2018-05-17T14:44:43.004Z,28.10
2018-05-17T14:47:11.425Z,27.90
2018-05-17T14:49:39.869Z,28.90
2018-05-17T14:52:09.211Z,28.70
2018-05-17T14:54:38.521Z,27.70
2018-05-17T14:57:07.701Z,28.00
2018-05-17T14:59:36.125Z,28.00
2018-05-17T15:02:04.470Z,28.40
2018-05-17T15:04:32.913Z,29.30
2018-05-17T15:07:01.395Z,28.70
2018-05-17T15:09:29.885Z,28.70
2018-05-17T15:11:58.243Z,28.70
2018-05-17T15:14:26.735Z,27.60
2018-05-17T15:16:55.221Z,28.30
2018-05-17T15:19:23.779Z,28.10
2018-05-17T15:21:52.254Z,28.00
2018-05-17T15:24:20.730Z,27.90
2018-05-17T15:26:49.225Z,27.40
2018-05-17T15:29:17.806Z,27.90
2018-05-17T15:31:46.580Z,27.60
2018-05-17T15:34:15.009Z,28.10
2018-05-17T15:36:45.125Z,28.60
2018-05-17T15:39:13.650Z,28.60
2018-05-17T15:41:42.122Z,28.50
2018-05-17T15:44:10.555Z,28.70
2018-05-17T15:46:38.859Z,28.40
2018-05-17T15:49:07.311Z,28.10
2018-05-17T15:51:35.944Z,27.40
2018-05-17T15:54:05.146Z,26.60
2018-05-17T15:56:34.375Z,26.60
2018-05-17T15:59:03.027Z,26.60
2018-05-17T16:01:32.307Z,27.30
2018-05-17T16:04:00.788Z,27.30
2018-05-17T16:06:29.247Z,27.40
2018-05-17T16:08:57.845Z,26.60
2018-05-17T16:11:26.234Z,26.40
2018-05-17T16:13:54.595Z,26.80
2018-05-17T16:16:22.921Z,27.10
2018-05-17T16:18:51.449Z,26.90
2018-05-17T16:21:19.947Z,26.50
2018-05-17T16:23:49.275Z,27.00
2018-05-17T16:26:18.603Z,27.50
2018-05-17T16:28:47.137Z,27.50
2018-05-17T16:31:16.290Z,27.30
2018-05-17T16:33:44.728Z,26.70
2018-05-17T16:36:14.056Z,26.60
2018-05-17T16:38:42.565Z,26.60
2018-05-17T16:41:10.895Z,27.90
2018-05-17T16:43:39.312Z,27.60
2018-05-17T16:46:07.736Z,28.30
2018-05-17T16:48:36.866Z,27.20
2018-05-17T16:51:06.166Z,27.60
2018-05-17T16:53:34.514Z,27.60
2018-05-17T16:56:04.762Z,27.30
2018-05-17T16:58:33.195Z,27.20
2018-05-17T17:01:01.606Z,27.20
2018-05-17T17:03:30.116Z,27.20
2018-05-17T17:05:58.569Z,26.70
2018-05-17T17:08:27.931Z,27.40
2018-05-17T17:10:57.095Z,27.80
2018-05-17T17:13:25.599Z,27.80
2018-05-17T17:15:54.046Z,27.90
2018-05-17T17:18:22.556Z,28.30
2018-05-17T17:20:50.921Z,28.00
2018-05-17T17:23:19.424Z,27.80
2018-05-17T17:25:48.674Z,28.60
2018-05-17T17:28:17.226Z,28.60
2018-05-17T17:30:47.231Z,28.30
2018-05-17T17:33:16.450Z,28.20
2018-05-17T17:35:45.662Z,28.00
2018-05-17T17:40:51.357Z,28.00
2018-05-17T17:43:19.698Z,27.80
2018-05-17T17:45:48.366Z,27.40
2018-05-17T17:48:17.817Z,28.50
2018-05-17T17:50:46.205Z,28.60
2018-05-17T17:53:15.163Z,28.30
2018-05-17T17:55:43.594Z,28.80
2018-05-17T17:58:12.085Z,29.00
2018-05-17T18:00:40.433Z,29.70
2018-05-17T18:03:09.197Z,29.90
2018-05-17T18:05:37.580Z,29.60
2018-05-17T18:08:06.231Z,30.00
2018-05-17T18:10:35.738Z,31.20
2018-05-17T18:13:04.352Z,31.10
2018-05-17T18:15:32.878Z,31.90
2018-05-17T18:18:02.160Z,32.10
2018-05-17T18:20:30.683Z,31.60
2018-05-17T18:22:59.092Z,31.60
2018-05-17T18:25:27.641Z,32.10
2018-05-17T18:27:57.015Z,33.50
2018-05-17T18:30:25.581Z,33.50
2018-05-17T18:32:54.279Z,33.60
2018-05-17T18:35:22.720Z,34.60
2018-05-17T18:37:51.582Z,35.50
2018-05-17T18:40:21.839Z,35.70
2018-05-17T18:42:50.238Z,35.70
2018-05-17T18:45:18.628Z,37.00
2018-05-17T18:47:47.057Z,36.00
2018-05-17T18:50:15.547Z,36.90
2018-05-17T18:52:43.924Z,36.80
2018-05-17T18:55:12.293Z,37.10
2018-05-17T18:57:40.706Z,37.20
2018-05-17T19:00:09.114Z,36.80
2018-05-17T19:02:37.645Z,37.70
2018-05-17T19:05:06.571Z,38.10
2018-05-17T19:07:35.116Z,37.70
2018-05-17T19:10:04.720Z,37.70
2018-05-17T19:12:33.730Z,38.70
2018-05-17T19:15:03.091Z,39.50
2018-05-17T19:17:32.015Z,38.90
2018-05-17T19:20:00.416Z,39.50
2018-05-17T19:22:28.756Z,39.70
2018-05-17T19:24:58.956Z,39.80
2018-05-17T19:27:27.383Z,40.30
2018-05-17T19:29:55.960Z,40.60
2018-05-17T19:32:25.180Z,41.70
2018-05-17T19:34:53.983Z,41.60
2018-05-17T19:37:22.921Z,41.50
2018-05-17T19:39:53.430Z,42.00
2018-05-17T19:42:25.483Z,42.50
2018-05-17T19:44:55.184Z,42.40
2018-05-17T19:47:25.711Z,42.20
2018-05-17T19:49:54.175Z,42.20
2018-05-17T19:52:22.730Z,42.70
2018-05-17T19:54:51.399Z,43.40
2018-05-17T19:57:19.852Z,44.00
2018-05-17T19:59:49.113Z,44.40
2018-05-17T20:02:17.471Z,44.30
2018-05-17T20:04:46.013Z,44.70
2018-05-17T20:07:16.310Z,44.60
2018-05-17T20:09:44.981Z,44.60
2018-05-17T20:12:14.876Z,44.80
2018-05-17T20:14:43.645Z,44.80
2018-05-17T20:17:12.395Z,44.90
2018-05-17T20:19:40.784Z,45.70
2018-05-17T20:22:09.233Z,46.20
2018-05-17T20:24:37.811Z,46.00
2018-05-17T20:27:06.431Z,46.00
2018-05-17T20:29:34.826Z,46.40
2018-05-17T20:32:04.007Z,47.20
2018-05-17T20:34:32.342Z,47.30
2018-05-17T20:37:01.080Z,47.40
2018-05-17T20:39:30.428Z,48.20
2018-05-17T20:41:58.826Z,48.20
2018-05-17T20:44:27.234Z,48.00
2018-05-17T20:46:56.380Z,47.50
2018-05-17T20:49:24.992Z,47.50
2018-05-17T20:51:53.701Z,47.50
2018-05-17T20:54:22.857Z,47.70
2018-05-17T20:56:51.324Z,47.60
2018-05-17T20:59:19.757Z,47.00
2018-05-17T21:01:48.869Z,48.00
2018-05-17T21:04:18.053Z,48.10
2018-05-17T21:06:47.331Z,47.90
2018-05-17T21:09:16.526Z,48.30
2018-05-17T21:11:46.528Z,48.20
2018-05-17T21:14:16.742Z,48.70
2018-05-17T21:16:46.756Z,47.80
2018-05-17T21:19:16.896Z,47.60
2018-05-17T21:21:45.951Z,47.10
2018-05-17T21:24:14.655Z,47.90
2018-05-17T21:26:43.013Z,47.30
2018-05-17T21:29:11.350Z,47.30
2018-05-17T21:31:39.827Z,48.00
2018-05-17T21:34:09.066Z,47.70
2018-05-17T21:36:37.533Z,47.70
2018-05-17T21:39:06.902Z,47.40
2018-05-17T21:41:35.261Z,47.40
2018-05-17T21:44:03.594Z,47.10
2018-05-17T21:46:32.695Z,47.50
2018-05-17T21:49:01.074Z,47.50
2018-05-17T21:51:29.442Z,47.30
2018-05-17T21:53:59.497Z,48.20
2018-05-17T21:56:27.902Z,48.20
2018-05-17T21:58:56.635Z,49.30
2018-05-17T22:01:25.216Z,48.50
2018-05-17T22:03:54.661Z,50.00
2018-05-17T22:06:23.335Z,50.00
2018-05-17T22:08:51.712Z,49.80
2018-05-17T22:11:20.060Z,48.90
2018-05-17T22:13:49.405Z,50.10
2018-05-17T22:16:17.787Z,50.00
2018-05-17T22:18:46.205Z,49.60
2018-05-17T22:21:15.417Z,50.10
2018-05-17T22:23:43.980Z,50.20
2018-05-17T22:26:12.314Z,49.60
2018-05-17T22:28:40.615Z,49.80
2018-05-17T22:31:08.981Z,50.50
2018-05-17T22:33:37.296Z,50.40
2018-05-17T22:36:06.383Z,49.80
2018-05-17T22:38:34.747Z,49.80
2018-05-17T22:41:03.828Z,52.30
2018-05-17T22:43:32.227Z,51.60
2018-05-17T22:46:00.552Z,50.80
2018-05-17T22:48:28.912Z,50.80
2018-05-17T22:50:58.026Z,50.50
2018-05-17T22:53:26.495Z,50.50
2018-05-17T22:55:55.011Z,51.20
2018-05-17T22:58:37.612Z,50.50
2018-05-17T23:01:05.990Z,51.30
2018-05-17T23:03:34.458Z,52.10
2018-05-17T23:06:02.887Z,50.40
2018-05-17T23:08:32.120Z,51.70
2018-05-17T23:11:02.112Z,52.00
2018-05-17T23:13:30.542Z,51.90
2018-05-17T23:15:58.875Z,51.00
2018-05-17T23:18:27.484Z,51.50
2018-05-17T23:20:56.110Z,52.40
2018-05-17T23:23:24.420Z,50.90
2018-05-17T23:25:53.541Z,52.10
2018-05-17T23:28:21.841Z,52.00
2018-05-17T23:30:50.197Z,51.70
2018-05-17T23:33:18.565Z,52.70
2018-05-17T23:35:47.685Z,52.20
2018-05-17T23:38:16.074Z,52.20
2018-05-17T23:43:52.162Z,52.60
2018-05-17T23:46:20.515Z,52.80
2018-05-17T23:48:49.816Z,52.00
2018-05-17T23:51:18.133Z,51.70
2018-05-17T23:53:46.440Z,51.50
2018-05-17T23:56:15.661Z,51.70
2018-05-17T23:58:44.261Z,51.00
